Skip Navigation LinksHome page > Tools > METAR decoder Skip Navigation Links

METAR decoder

Settings

METAR

Chicago O'Hare Intl, Chicago

For information only: do not use for flight planning or navigation.
Latest weather
Observation time Sunday, May 31, 2020 7:51 AM CDT
Local time Sunday, May 31, 2020 8:52 AM CDT
Flight conditions Visual Meteorological Conditions
Winds
Wind direction East (80°)
Wind speed 10 mph
Visibility 10 mi.
Sky condition
Ceiling unlimited
Cloud layer few clouds 25,000 ft.
Temperature 56°F
Dewpoint 37°F
Altimeter 30.36 in.Hg
Derived measurements
Relative humidity 49%
Density altitude 79 ft.
Sea-level pressure 30.36 in.Hg
Remarks
System requires maintenance.
Automated weather observing station with precipitation discriminator.
METAR KORD 311251Z 08009KT 10SM FEW250 14/03 A3036 RMK AO2 SLP281 T01330028 $

InnerDrive.Weather 4.0.6770.0 Release CLR 4.0.30319.42000
Copyright ©2018 Inner Drive Technology. All rights reserved. Portions Copyright ©1986-2018 David Braverman.

Find weather

Site navigation


Skip Navigation Links

Place info

Page info

PayPal - The safer, easier way to pay online!

Return home.

Copyright ©2020 Inner Drive Technology. Purveyors of fine, hand-crafted computer software. Page printed 2020-05-31T13:52:41 UTC.